Time;durP1;ratioP1;P1;durP2;ratioP2;P2;SDS_P1;SDS_P2;PMS_P1;PMS_P2;Temp;Humidity;BMP_temperature;BMP_pressure;BME280_temperature;BME280_humidity;BME280_pressure;Samples;Min_cycle;Max_cycle;Signal;HPM_P1;HPM_P2
2023/02/19 00:00:19;;;;;;;6.60;5.07;;;8.70;67.30;;;;;;7391330;19;20018;-68
2023/02/19 00:02:51;;;;;;;6.22;4.85;;;8.70;67.50;;;;;;7394115;19;20039;-69
2023/02/19 00:05:23;;;;;;;7.22;5.15;;;8.70;67.60;;;;;;7393915;19;20479;-68
2023/02/19 00:07:53;;;;;;;6.45;5.15;;;8.60;67.10;;;;;;7393584;19;20025;-69
2023/02/19 00:10:23;;;;;;;6.10;4.82;;;8.60;66.80;;;;;;7390860;19;20017;-69
2023/02/19 00:12:54;;;;;;;8.95;5.07;;;8.70;67.50;;;;;;7393740;19;20021;-68
2023/02/19 00:15:24;;;;;;;8.77;4.88;;;8.70;67.60;;;;;;7393430;19;20117;-68
2023/02/19 00:17:54;;;;;;;6.57;4.85;;;8.70;67.60;;;;;;7394417;19;20011;-69
2023/02/19 00:20:26;;;;;;;5.90;4.90;;;8.70;67.20;;;;;;7391156;19;20014;-69
2023/02/19 00:22:56;;;;;;;9.25;5.40;;;8.80;67.60;;;;;;7393642;19;20010;-69
2023/02/19 00:25:26;;;;;;;6.40;5.07;;;8.70;67.00;;;;;;7393017;19;20019;-69
2023/02/19 00:27:55;;;;;;;6.72;5.40;;;8.80;67.20;;;;;;7391514;19;20060;-69
2023/02/19 00:30:25;;;;;;;6.78;5.30;;;8.80;66.20;;;;;;7394797;19;20021;-69
2023/02/19 00:32:55;;;;;;;9.98;5.38;;;8.70;66.20;;;;;;7393718;19;20018;-69
2023/02/19 00:35:27;;;;;;;10.50;5.22;;;8.70;65.70;;;;;;7393833;19;20003;-69
2023/02/19 00:37:57;;;;;;;6.32;5.28;;;8.80;65.90;;;;;;7393064;19;20022;-69
2023/02/19 00:40:27;;;;;;;6.75;5.38;;;8.70;65.70;;;;;;7390469;19;20017;-69
2023/02/19 00:42:57;;;;;;;6.28;5.10;;;8.70;65.50;;;;;;7393098;19;20499;-69
2023/02/19 00:45:26;;;;;;;7.13;5.05;;;8.80;65.70;;;;;;7392564;19;20025;-69
2023/02/19 00:47:56;;;;;;;8.50;5.35;;;8.80;65.60;;;;;;7392554;19;20018;-69
2023/02/19 00:50:29;;;;;;;6.63;5.40;;;8.80;65.60;;;;;;7388934;19;20043;-69
2023/02/19 00:52:58;;;;;;;7.13;4.80;;;8.70;64.70;;;;;;7390214;19;20015;-69
2023/02/19 00:55:28;;;;;;;6.20;5.10;;;8.80;65.70;;;;;;7391849;19;20026;-69
2023/02/19 00:57:58;;;;;;;5.93;5.25;;;8.80;65.50;;;;;;7392094;19;20486;-69
2023/02/19 01:00:28;;;;;;;7.00;5.07;;;8.80;64.80;;;;;;7389512;19;20018;-68
2023/02/19 01:02:57;;;;;;;6.82;5.20;;;8.80;65.60;;;;;;7392234;19;20032;-69
2023/02/19 01:05:30;;;;;;;7.20;4.97;;;8.80;65.60;;;;;;7392244;19;20022;-69
2023/02/19 01:08:00;;;;;;;6.63;4.75;;;8.70;65.10;;;;;;7390770;19;20018;-67
2023/02/19 01:10:30;;;;;;;6.43;5.25;;;8.80;65.60;;;;;;7389537;19;20468;-69
2023/02/19 01:13:00;;;;;;;8.52;5.43;;;8.80;65.60;;;;;;7391894;19;20458;-69
2023/02/19 01:15:29;;;;;;;7.60;5.38;;;8.80;65.60;;;;;;7391608;19;20126;-69
2023/02/19 01:17:59;;;;;;;8.02;5.20;;;8.80;65.60;;;;;;7391506;19;20478;-69
2023/02/19 01:20:31;;;;;;;5.78;4.55;;;8.80;65.60;;;;;;7389326;19;20022;-69
2023/02/19 01:23:01;;;;;;;7.10;5.35;;;8.80;65.40;;;;;;7391513;19;20370;-69
2023/02/19 01:25:31;;;;;;;6.72;5.22;;;8.80;65.50;;;;;;7391136;19;20360;-69
2023/02/19 01:28:01;;;;;;;6.60;4.78;;;8.80;65.60;;;;;;7391318;19;20522;-69
2023/02/19 01:30:30;;;;;;;6.35;5.05;;;8.80;64.90;;;;;;7393091;19;20082;-69
2023/02/19 01:33:00;;;;;;;7.60;5.28;;;8.80;65.60;;;;;;7391441;19;20010;-69
2023/02/19 01:35:32;;;;;;;6.95;5.22;;;8.80;65.60;;;;;;7391522;19;20479;-69
2023/02/19 01:38:02;;;;;;;6.10;5.13;;;8.80;65.50;;;;;;7391450;19;20010;-68
2023/02/19 01:40:32;;;;;;;6.70;5.10;;;8.80;64.60;;;;;;7388337;19;20018;-69
2023/02/19 01:43:02;;;;;;;7.38;5.50;;;8.80;64.90;;;;;;7391001;19;20038;-69
2023/02/19 01:45:33;;;;;;;6.22;5.22;;;8.80;64.80;;;;;;7398423;19;20021;-69
2023/02/19 01:48:09;;;;;;;6.78;5.32;;;8.80;65.60;;;;;;7398667;19;20006;-69
2023/02/19 01:50:45;;;;;;;7.20;5.32;;;8.80;65.40;;;;;;7393622;19;20042;-69
2023/02/19 01:53:18;;;;;;;8.10;5.78;;;8.80;65.60;;;;;;7391248;19;20031;-69
2023/02/19 01:55:49;;;;;;;6.82;5.28;;;8.80;65.70;;;;;;7390539;19;20014;-69
2023/02/19 01:58:20;;;;;;;8.95;5.82;;;8.80;65.70;;;;;;7390072;19;20082;-69
2023/02/19 02:00:50;;;;;;;7.38;5.43;;;8.80;65.60;;;;;;7388347;19;20014;-69
2023/02/19 02:03:21;;;;;;;7.80;5.70;;;8.70;66.10;;;;;;7389093;19;20019;-69
2023/02/19 02:05:58;;;;;;;7.10;5.85;;;8.70;66.80;;;;;;7389029;19;20352;-69
2023/02/19 02:11:11;;;;;;;7.15;5.40;;;8.70;67.30;;;;;;7389633;19;20016;-69
2023/02/19 02:13:42;;;;;;;8.73;5.68;;;8.70;67.80;;;;;;7389749;19;20014;-69
2023/02/19 02:16:24;;;;;;;6.95;5.55;;;8.70;67.90;;;;;;7389459;19;20035;-69
2023/02/19 02:19:03;;;;;;;6.95;5.60;;;8.70;68.00;;;;;;7388786;19;20018;-69
2023/02/19 02:22:06;;;;;;;7.07;5.50;;;8.70;68.20;;;;;;7390001;19;20019;-69
2023/02/19 02:24:54;;;;;;;7.82;5.78;;;8.80;68.80;;;;;;7388945;19;20018;-69
2023/02/19 02:27:42;;;;;;;6.85;5.72;;;8.70;68.90;;;;;;7389263;19;20536;-69
2023/02/19 02:30:25;;;;;;;6.65;5.30;;;8.70;69.20;;;;;;7391065;19;20014;-70
2023/02/19 02:33:01;;;;;;;8.45;5.55;;;8.70;69.40;;;;;;7388862;19;20018;-69
2023/02/19 02:35:36;;;;;;;9.13;5.10;;;8.70;69.60;;;;;;7389007;19;20486;-69
2023/02/19 02:38:10;;;;;;;8.13;6.13;;;8.70;69.60;;;;;;7387432;19;20037;-70
2023/02/19 02:40:43;;;;;;;7.70;5.93;;;8.80;69.70;;;;;;7387279;19;20015;-69
2023/02/19 02:43:14;;;;;;;8.50;6.55;;;8.70;69.60;;;;;;7386906;19;20378;-69
2023/02/19 02:45:46;;;;;;;7.88;5.88;;;8.70;69.70;;;;;;7387224;19;20017;-69
2023/02/19 02:48:24;;;;;;;7.25;5.55;;;8.80;70.20;;;;;;7388492;19;20018;-69
2023/02/19 02:50:58;;;;;;;7.20;5.10;;;8.80;70.50;;;;;;7387261;19;20074;-69
2023/02/19 02:56:16;;;;;;;7.82;5.65;;;8.80;70.90;;;;;;7388653;19;20486;-69
2023/02/19 02:58:48;;;;;;;6.40;5.15;;;8.80;71.00;;;;;;7387511;19;20010;-69
2023/02/19 03:04:11;;;;;;;6.75;4.93;;;8.80;71.30;;;;;;7388326;19;20014;-69
2023/02/19 03:06:43;;;;;;;6.82;4.97;;;8.80;71.40;;;;;;7388031;19;20386;-69
2023/02/19 03:09:16;;;;;;;6.10;4.45;;;8.70;71.10;;;;;;7387194;19;20014;-69
2023/02/19 03:20:13;;;;;;;4.35;3.13;;;8.70;71.50;;;;;;7392926;19;20014;-68
2023/02/19 03:22:45;;;;;;;4.38;2.90;;;8.70;71.80;;;;;;7395047;19;20042;-68
2023/02/19 03:28:04;;;;;;;3.53;2.05;;;8.70;72.10;;;;;;7395426;19;20021;-67
2023/02/19 03:30:36;;;;;;;3.75;2.00;;;8.70;72.80;;;;;;7396618;19;20042;-68
2023/02/19 03:33:11;;;;;;;2.78;2.20;;;8.60;72.00;;;;;;7394916;19;20015;-70
2023/02/19 03:35:46;;;;;;;2.30;2.05;;;8.60;72.10;;;;;;7394926;19;20045;-70
2023/02/19 03:38:19;;;;;;;1.63;1.50;;;8.60;71.90;;;;;;7394894;19;20014;-68
2023/02/19 03:40:55;;;;;;;1.70;1.48;;;8.60;71.70;;;;;;7390127;19;20460;-70
2023/02/19 03:43:35;;;;;;;2.92;1.55;;;8.60;72.00;;;;;;7394640;19;20139;-70
2023/02/19 03:46:11;;;;;;;1.75;1.40;;;8.60;71.80;;;;;;7394941;19;20043;-68
2023/02/19 03:48:49;;;;;;;6.78;1.30;;;8.60;71.90;;;;;;7393619;19;20016;-68
2023/02/19 03:51:29;;;;;;;1.10;0.98;;;8.60;72.30;;;;;;7392437;19;20025;-68
2023/02/19 03:54:10;;;;;;;1.70;1.10;;;8.60;71.30;;;;;;7394097;19;20006;-68
2023/02/19 03:56:44;;;;;;;1.42;0.90;;;8.60;71.40;;;;;;7394840;19;20014;-68
2023/02/19 03:59:18;;;;;;;1.10;0.90;;;8.60;70.90;;;;;;7392075;19;20018;-68
2023/02/19 04:01:50;;;;;;;;;;;8.60;70.70;;;;;;7394824;19;20018;-68
2023/02/19 04:04:28;;;;;;;1.25;0.90;;;8.60;69.60;;;;;;7393938;19;19911;-68
2023/02/19 04:06:59;;;;;;;0.80;0.60;;;8.60;68.80;;;;;;7394038;19;20084;-68
2023/02/19 04:09:35;;;;;;;0.82;0.60;;;8.60;68.00;;;;;;7392277;19;20097;-68
2023/02/19 04:12:05;;;;;;;0.63;0.45;;;8.60;65.60;;;;;;7393938;19;20018;-68
2023/02/19 04:14:40;;;;;;;1.92;0.70;;;8.60;60.30;;;;;;7396605;19;20084;-68
2023/02/19 04:17:15;;;;;;;1.00;0.40;;;8.60;59.40;;;;;;7393925;19;20441;-68
2023/02/19 04:19:51;;;;;;;1.05;0.40;;;8.70;55.20;;;;;;7391900;19;20018;-68
2023/02/19 04:22:23;;;;;;;0.70;0.52;;;8.70;52.00;;;;;;7393504;19;20039;-68
2023/02/19 04:24:56;;;;;;;0.47;0.40;;;8.80;48.80;;;;;;7393689;19;20017;-70
2023/02/19 04:27:26;;;;;;;0.57;0.50;;;8.80;46.50;;;;;;7392619;19;20018;-68
2023/02/19 04:29:55;;;;;;;1.10;0.70;;;8.80;47.10;;;;;;7394399;19;20078;-68
2023/02/19 04:32:25;;;;;;;0.88;0.80;;;8.70;45.90;;;;;;7393238;19;20021;-68
2023/02/19 04:34:58;;;;;;;1.50;0.70;;;8.70;48.60;;;;;;7393201;19;20018;-68
2023/02/19 04:37:27;;;;;;;1.30;0.98;;;8.60;48.40;;;;;;7391829;19;20034;-68
2023/02/19 04:39:57;;;;;;;2.05;1.00;;;8.60;49.00;;;;;;7390741;19;20010;-69
2023/02/19 04:42:27;;;;;;;1.83;1.00;;;8.60;49.60;;;;;;7393028;19;20014;-69
2023/02/19 04:44:57;;;;;;;1.45;1.20;;;8.60;49.70;;;;;;7392648;19;20021;-69
2023/02/19 04:47:26;;;;;;;1.40;1.30;;;8.50;50.20;;;;;;7392846;19;20093;-68
2023/02/19 04:49:59;;;;;;;1.65;1.30;;;8.50;50.00;;;;;;7390389;19;20035;-68
2023/02/19 04:52:29;;;;;;;2.22;1.48;;;8.50;51.20;;;;;;7392766;19;20010;-68
2023/02/19 04:54:59;;;;;;;1.70;1.30;;;8.40;52.20;;;;;;7392434;19;20470;-68
2023/02/19 04:57:28;;;;;;;2.22;1.60;;;8.50;52.20;;;;;;7392691;19;20382;-68
2023/02/19 04:59:58;;;;;;;1.33;1.17;;;8.40;50.80;;;;;;7389852;19;20110;-68
2023/02/19 05:02:28;;;;;;;1.45;1.02;;;8.40;51.90;;;;;;7392139;19;20566;-70
2023/02/19 05:05:00;;;;;;;1.15;1.00;;;8.40;52.60;;;;;;7392148;19;20018;-70
2023/02/19 05:07:30;;;;;;;1.42;1.17;;;8.40;53.10;;;;;;7393024;19;20063;-70
2023/02/19 05:10:00;;;;;;;2.70;1.30;;;8.40;52.00;;;;;;7390626;19;20168;-70
2023/02/19 05:12:31;;;;;;;1.13;0.85;;;8.30;52.00;;;;;;7389959;19;20027;-70
2023/02/19 05:15:01;;;;;;;1.10;0.90;;;8.30;51.80;;;;;;7391791;19;20082;-70
2023/02/19 05:17:31;;;;;;;1.25;0.85;;;8.30;52.00;;;;;;7395101;19;20039;-70
2023/02/19 05:20:03;;;;;;;1.75;0.65;;;8.30;51.90;;;;;;7394850;19;20015;-68
2023/02/19 05:22:33;;;;;;;1.05;0.80;;;8.30;49.80;;;;;;7394566;19;20014;-65
2023/02/19 05:25:03;;;;;;;0.70;0.68;;;8.40;48.40;;;;;;7394605;19;20046;-68
2023/02/19 05:27:33;;;;;;;1.02;0.80;;;8.40;48.60;;;;;;7391587;19;20014;-68
2023/02/19 05:30:03;;;;;;;1.00;0.80;;;8.40;47.60;;;;;;7392936;19;20018;-68
2023/02/19 05:32:33;;;;;;;1.58;0.80;;;8.40;48.50;;;;;;7388359;19;20018;-68
2023/02/19 05:35:05;;;;;;;1.58;0.90;;;8.40;48.70;;;;;;7391434;19;20685;-68
2023/02/19 05:37:35;;;;;;;1.48;0.80;;;8.30;48.30;;;;;;7391200;19;20043;-69
2023/02/19 05:40:05;;;;;;;1.00;0.80;;;8.30;49.70;;;;;;7385430;19;20043;-68
2023/02/19 05:42:35;;;;;;;1.45;1.20;;;8.30;49.50;;;;;;7390920;19;20427;-68
2023/02/19 05:45:06;;;;;;;1.30;1.15;;;8.30;48.90;;;;;;7390830;19;20011;-69
2023/02/19 05:47:35;;;;;;;1.65;1.33;;;8.30;48.00;;;;;;7390573;19;20018;-69
2023/02/19 05:50:08;;;;;;;1.02;0.93;;;8.30;46.50;;;;;;7388993;19;20018;-68
2023/02/19 05:52:38;;;;;;;1.20;1.08;;;8.40;46.30;;;;;;7388740;19;20514;-68
2023/02/19 05:55:08;;;;;;;1.17;0.90;;;8.40;46.40;;;;;;7390599;19;20019;-68
2023/02/19 05:57:42;;;;;;;1.20;0.85;;;8.40;45.20;;;;;;7389487;19;20010;-68
2023/02/19 06:00:14;;;;;;;1.30;1.13;;;8.40;44.90;;;;;;7388474;19;20063;-68
2023/02/19 06:02:44;;;;;;;0.88;0.80;;;8.40;44.90;;;;;;7390320;19;20018;-69
2023/02/19 06:05:16;;;;;;;0.93;0.50;;;8.40;42.50;;;;;;7389772;19;20023;-68
2023/02/19 06:07:49;;;;;;;1.25;0.90;;;8.40;40.30;;;;;;7390365;19;20018;-68
2023/02/19 06:10:20;;;;;;;1.63;0.80;;;8.50;39.30;;;;;;7387624;19;20038;-68
2023/02/19 06:12:53;;;;;;;0.80;0.60;;;8.50;38.30;;;;;;7388486;19;20042;-68
2023/02/19 06:15:23;;;;;;;0.63;0.60;;;8.50;37.70;;;;;;7389746;19;20190;-69
2023/02/19 06:17:53;;;;;;;1.00;0.80;;;8.50;37.10;;;;;;7389464;19;20519;-68
2023/02/19 06:20:25;;;;;;;1.27;0.80;;;8.50;36.70;;;;;;7387872;19;20074;-69
2023/02/19 06:22:55;;;;;;;1.45;1.00;;;8.40;37.50;;;;;;7389535;19;20022;-69
2023/02/19 06:25:25;;;;;;;1.33;0.88;;;8.50;36.40;;;;;;7389179;19;20369;-68
2023/02/19 06:27:54;;;;;;;1.02;0.90;;;8.50;34.80;;;;;;7389370;19;20018;-69
2023/02/19 06:30:24;;;;;;;1.35;1.00;;;8.50;34.90;;;;;;7391190;19;20023;-69
2023/02/19 06:32:55;;;;;;;1.27;0.90;;;8.50;33.40;;;;;;7387745;19;20125;-69
2023/02/19 06:35:27;;;;;;;0.88;0.70;;;8.50;32.50;;;;;;7389534;19;20031;-68
2023/02/19 06:37:57;;;;;;;1.08;0.90;;;8.60;30.80;;;;;;7389252;19;20015;-68
2023/02/19 06:40:27;;;;;;;1.02;0.93;;;8.60;29.80;;;;;;7387015;19;20346;-68
2023/02/19 06:42:56;;;;;;;1.48;1.10;;;8.60;28.70;;;;;;7388862;19;20014;-69
2023/02/19 06:45:26;;;;;;;1.23;1.05;;;8.60;28.20;;;;;;7389660;19;20612;-69
2023/02/19 06:47:56;;;;;;;1.92;1.10;;;8.70;25.50;;;;;;7388397;19;20006;-68
2023/02/19 06:50:28;;;;;;;1.95;1.30;;;8.70;25.40;;;;;;7385182;19;20041;-68
2023/02/19 06:52:58;;;;;;;1.73;1.23;;;8.70;25.40;;;;;;7385443;19;20011;-68
2023/02/19 06:55:28;;;;;;;2.90;1.23;;;8.70;24.40;;;;;;7388563;19;20056;-68
2023/02/19 06:57:58;;;;;;;4.03;1.60;;;8.70;24.00;;;;;;7388417;19;20538;-68
2023/02/19 07:00:28;;;;;;;2.03;1.58;;;8.70;24.20;;;;;;7386204;19;20011;-68
2023/02/19 07:02:58;;;;;;;1.60;1.50;;;8.70;23.70;;;;;;7388511;19;20037;-68
2023/02/19 07:05:31;;;;;;;3.92;1.60;;;8.70;23.30;;;;;;7388456;19;20025;-68
2023/02/19 07:08:00;;;;;;;2.03;1.65;;;8.70;23.10;;;;;;7388549;19;20015;-68
2023/02/19 07:10:30;;;;;;;2.38;1.33;;;8.70;22.80;;;;;;7386376;19;20011;-67
2023/02/19 07:13:00;;;;;;;2.15;1.50;;;8.70;23.80;;;;;;7386732;19;20031;-68
2023/02/19 07:15:30;;;;;;;1.63;1.20;;;8.70;24.40;;;;;;7388000;19;20014;-67
2023/02/19 07:18:00;;;;;;;1.27;1.08;;;8.70;24.70;;;;;;7387915;19;20019;-68
2023/02/19 07:20:33;;;;;;;1.60;1.35;;;8.70;25.10;;;;;;7385784;19;20019;-69
2023/02/19 07:23:03;;;;;;;2.90;1.52;;;8.70;25.10;;;;;;7388090;19;20091;-69
2023/02/19 07:25:33;;;;;;;2.08;1.40;;;8.70;25.50;;;;;;7386240;19;20074;-69
2023/02/19 07:28:02;;;;;;;1.85;1.30;;;8.70;24.20;;;;;;7386289;19;20039;-69
2023/02/19 07:30:32;;;;;;;1.40;1.23;;;8.70;24.60;;;;;;7389618;19;20050;-69
2023/02/19 07:33:02;;;;;;;2.28;1.35;;;8.70;24.60;;;;;;7386251;19;20489;-69
2023/02/19 07:35:34;;;;;;;2.05;1.48;;;8.70;24.80;;;;;;7387629;19;20042;-69
2023/02/19 07:38:04;;;;;;;2.83;1.48;;;8.70;23.20;;;;;;7387357;19;20077;-68
2023/02/19 07:40:35;;;;;;;1.77;1.60;;;8.80;23.50;;;;;;7384486;19;20124;-69
2023/02/19 07:43:05;;;;;;;1.90;1.50;;;8.80;23.20;;;;;;7387097;19;20042;-69
2023/02/19 07:45:35;;;;;;;1.67;1.48;;;8.80;23.10;;;;;;7387261;19;20015;-67
2023/02/19 07:48:05;;;;;;;2.75;1.88;;;8.70;24.20;;;;;;7387198;19;20090;-69
2023/02/19 07:50:37;;;;;;;3.58;1.70;;;8.70;23.60;;;;;;7384787;19;20014;-69
2023/02/19 07:53:07;;;;;;;4.35;2.17;;;8.70;24.00;;;;;;7384453;19;20018;-69
2023/02/19 07:55:37;;;;;;;2.00;1.80;;;8.70;24.00;;;;;;7385157;19;20450;-68
2023/02/19 07:58:06;;;;;;;2.03;1.80;;;8.80;23.80;;;;;;7386796;19;20015;-69
2023/02/19 08:00:36;;;;;;;2.28;1.58;;;8.90;24.90;;;;;;7384525;19;20014;-69
2023/02/19 08:03:06;;;;;;;2.30;1.80;;;8.80;23.00;;;;;;7389700;19;20026;-69
2023/02/19 08:05:40;;;;;;;2.50;1.80;;;8.90;22.80;;;;;;7393909;19;20015;-69
2023/02/19 08:08:12;;;;;;;2.20;1.77;;;8.90;22.10;;;;;;7393786;19;20003;-69
2023/02/19 08:13:25;;;;;;;2.60;2.03;;;9.00;22.10;;;;;;7392799;19;20021;-69
2023/02/19 08:15:57;;;;;;;2.22;1.52;;;9.00;20.60;;;;;;7393463;19;20014;-69
2023/02/19 08:18:43;;;;;;;2.80;1.98;;;9.00;19.30;;;;;;7392698;19;20025;-69
2023/02/19 08:21:21;;;;;;;3.60;2.13;;;9.10;19.80;;;;;;7393131;19;20015;-69
2023/02/19 08:23:51;;;;;;;2.15;1.85;;;9.10;20.40;;;;;;7393175;19;20101;-68
2023/02/19 08:26:21;;;;;;;2.85;1.90;;;9.10;22.20;;;;;;7393334;19;20022;-68
2023/02/19 08:28:51;;;;;;;3.60;1.80;;;9.10;22.20;;;;;;7393471;19;20011;-69
2023/02/19 08:31:20;;;;;;;2.22;1.60;;;9.10;21.00;;;;;;7392941;19;20039;-69
2023/02/19 08:33:50;;;;;;;3.00;1.40;;;9.10;22.00;;;;;;7391263;19;20506;-69
2023/02/19 08:36:22;;;;;;;1.73;1.38;;;9.20;21.50;;;;;;7393548;19;20533;-69
2023/02/19 08:38:52;;;;;;;1.42;1.20;;;9.10;20.20;;;;;;7392001;19;20032;-70
2023/02/19 08:41:22;;;;;;;3.10;1.33;;;9.10;19.80;;;;;;7393195;19;20049;-69
2023/02/19 08:43:52;;;;;;;1.92;1.30;;;9.10;18.80;;;;;;7392779;19;20074;-70
2023/02/19 08:46:22;;;;;;;2.60;1.20;;;9.20;18.30;;;;;;7392162;19;20039;-69
2023/02/19 08:48:52;;;;;;;2.67;1.30;;;9.20;18.40;;;;;;7392947;19;20047;-70
2023/02/19 08:51:24;;;;;;;1.75;1.48;;;9.30;17.90;;;;;;7393784;19;20097;-70
2023/02/19 08:53:54;;;;;;;1.55;1.13;;;9.20;15.30;;;;;;7391362;19;20487;-65
2023/02/19 08:56:24;;;;;;;2.33;1.50;;;9.30;16.70;;;;;;7395971;19;20021;-68
2023/02/19 08:58:53;;;;;;;2.90;1.40;;;9.30;15.70;;;;;;7391519;19;20021;-70
2023/02/19 09:01:23;;;;;;;1.50;1.00;;;9.30;15.30;;;;;;7392671;19;20010;-69
2023/02/19 09:03:54;;;;;;;5.03;1.73;;;9.40;15.40;;;;;;7391707;19;20015;-69
2023/02/19 09:06:26;;;;;;;2.55;1.33;;;9.40;14.10;;;;;;7391695;19;20014;-69
2023/02/19 09:08:56;;;;;;;2.97;1.88;;;9.50;15.40;;;;;;7391467;19;20014;-70
2023/02/19 09:11:26;;;;;;;2.42;1.58;;;9.50;13.30;;;;;;7392084;19;20070;-69
2023/02/19 09:13:57;;;;;;;3.30;1.75;;;9.50;12.70;;;;;;7388586;19;20038;-68
2023/02/19 09:16:27;;;;;;;2.45;1.98;;;9.50;11.70;;;;;;7389498;19;20010;-69
2023/02/19 09:18:57;;;;;;;3.67;1.60;;;9.60;11.10;;;;;;7390813;19;20025;-68
2023/02/19 09:21:30;;;;;;;2.05;1.70;;;9.70;11.60;;;;;;7392106;19;20010;-68
2023/02/19 09:23:59;;;;;;;2.75;1.90;;;9.60;10.80;;;;;;7391929;19;20011;-68
2023/02/19 09:26:29;;;;;;;1.85;1.52;;;9.70;10.20;;;;;;7391192;19;20483;-69
2023/02/19 09:28:59;;;;;;;2.80;2.00;;;9.70;11.40;;;;;;7391603;19;20077;-69
2023/02/19 09:31:29;;;;;;;3.13;1.88;;;9.60;9.40;;;;;;7390828;19;20021;-68
2023/02/19 09:33:59;;;;;;;2.25;1.60;;;9.60;8.30;;;;;;7389837;19;20486;-69
2023/02/19 09:36:32;;;;;;;3.20;1.77;;;9.60;8.30;;;;;;7388934;19;20376;-69
2023/02/19 09:39:03;;;;;;;3.47;1.90;;;9.70;9.80;;;;;;7389882;19;20018;-68
2023/02/19 09:41:34;;;;;;;3.70;1.77;;;9.70;8.40;;;;;;7390853;19;20092;-69
2023/02/19 09:44:07;;;;;;;4.50;1.85;;;9.70;7.80;;;;;;7390641;19;20025;-69
2023/02/19 09:46:42;;;;;;;4.20;2.05;;;9.80;7.00;;;;;;7391135;19;20014;-70
2023/02/19 09:49:16;;;;;;;4.53;1.77;;;9.70;5.80;;;;;;7389566;19;20022;-69
2023/02/19 09:51:53;;;;;;;2.97;1.80;;;10.10;2.10;;;;;;7390456;19;20021;-70
2023/02/19 09:54:26;;;;;;;4.70;1.83;;;10.30;1.00;;;;;;7389766;19;20332;-69
2023/02/19 09:56:57;;;;;;;3.97;1.48;;;10.40;1.00;;;;;;7390300;19;20018;-68
2023/02/19 09:59:32;;;;;;;2.75;1.25;;;10.70;1.00;;;;;;7388982;19;20074;-69
2023/02/19 10:02:06;;;;;;;3.75;1.33;;;10.90;1.00;;;;;;7390415;19;20083;-69
2023/02/19 10:04:36;;;;;;;2.97;1.70;;;10.90;1.00;;;;;;7388294;19;20363;-70
2023/02/19 10:07:14;;;;;;;2.83;1.50;;;10.90;1.00;;;;;;7388100;19;20077;-69
2023/02/19 10:09:46;;;;;;;6.18;1.40;;;10.80;1.00;;;;;;7389061;19;20041;-69
2023/02/19 10:12:19;;;;;;;2.50;1.30;;;10.70;1.00;;;;;;7389887;19;20402;-69
2023/02/19 10:14:52;;;;;;;2.88;1.20;;;10.70;1.00;;;;;;7388558;19;20018;-69
2023/02/19 10:17:25;;;;;;;1.63;1.08;;;10.80;1.00;;;;;;7387753;19;20081;-69
2023/02/19 10:19:55;;;;;;;4.28;1.42;;;10.90;1.00;;;;;;7388283;19;20020;-68
2023/02/19 10:22:28;;;;;;;4.75;1.88;;;10.70;1.00;;;;;;7387691;19;20026;-68
2023/02/19 10:24:58;;;;;;;3.88;1.27;;;10.90;1.00;;;;;;7388979;19;20015;-69
2023/02/19 10:27:32;;;;;;;3.33;1.17;;;10.70;1.00;;;;;;7388812;19;20015;-69
2023/02/19 10:30:03;;;;;;;2.90;1.30;;;10.70;1.00;;;;;;7390923;19;20014;-68
2023/02/19 10:32:33;;;;;;;2.55;1.27;;;10.90;1.00;;;;;;7389598;19;20069;-68
2023/02/19 10:35:11;;;;;;;2.65;1.30;;;10.70;1.00;;;;;;7387725;19;20018;-68
2023/02/19 10:37:48;;;;;;;2.40;1.27;;;10.80;1.00;;;;;;7388893;19;20545;-68
2023/02/19 10:40:20;;;;;;;4.00;1.50;;;10.80;1.00;;;;;;7387132;19;20014;-68
2023/02/19 10:42:52;;;;;;;3.17;1.58;;;10.90;1.00;;;;;;7389027;19;20021;-68
2023/02/19 10:45:25;;;;;;;2.15;1.23;;;10.80;1.00;;;;;;7387482;19;20014;-69
2023/02/19 10:47:55;;;;;;;2.17;1.17;;;10.60;1.00;;;;;;7388910;19;20022;-68
2023/02/19 10:50:29;;;;;;;4.25;1.35;;;10.60;1.00;;;;;;7387152;19;20116;-68
2023/02/19 10:53:02;;;;;;;3.63;1.50;;;10.70;1.00;;;;;;7389156;19;20414;-68
2023/02/19 10:55:35;;;;;;;2.38;1.42;;;10.80;1.00;;;;;;7387780;19;20015;-68
2023/02/19 10:58:25;;;;;;;5.85;1.55;;;10.80;1.00;;;;;;7388635;19;20074;-68
2023/02/19 11:01:14;;;;;;;4.43;1.80;;;10.80;1.00;;;;;;7388432;19;20015;-70
2023/02/19 11:03:44;;;;;;;3.25;1.50;;;10.70;1.00;;;;;;7387987;19;20019;-69
2023/02/19 11:06:16;;;;;;;3.92;1.38;;;10.60;1.00;;;;;;7388032;19;20014;-68
2023/02/19 11:08:57;;;;;;;2.60;1.30;;;10.70;1.00;;;;;;7387324;19;20130;-67
2023/02/19 11:11:32;;;;;;;2.92;1.30;;;10.70;1.00;;;;;;7388627;19;20018;-69
2023/02/19 11:14:06;;;;;;;4.40;1.58;;;10.70;1.00;;;;;;7387790;19;20082;-69
2023/02/19 11:16:45;;;;;;;8.35;1.80;;;10.40;1.00;;;;;;7387875;19;20025;-69
2023/02/19 11:19:28;;;;;;;5.53;1.70;;;10.20;1.00;;;;;;7386800;19;20018;-69
2023/02/19 11:21:58;;;;;;;4.40;1.80;;;10.30;1.00;;;;;;7385740;19;20014;-67
2023/02/19 11:24:36;;;;;;;3.33;1.27;;;10.20;1.00;;;;;;7388101;19;20018;-69
2023/02/19 11:27:08;;;;;;;2.97;1.35;;;10.30;1.00;;;;;;7387670;19;20018;-70
2023/02/19 11:29:38;;;;;;;2.88;1.20;;;10.60;1.00;;;;;;7386753;19;20018;-69
2023/02/19 11:32:25;;;;;;;2.60;1.38;;;10.50;1.00;;;;;;7388021;19;20038;-69
2023/02/19 11:35:21;;;;;;;2.95;1.30;;;10.70;1.00;;;;;;7386774;19;20014;-67
2023/02/19 11:37:59;;;;;;;3.97;1.33;;;10.80;1.00;;;;;;7389339;19;20582;-68
2023/02/19 11:40:42;;;;;;;2.83;1.27;;;10.90;1.00;;;;;;7391830;19;20026;-69
2023/02/19 11:43:26;;;;;;;2.97;1.60;;;10.80;1.00;;;;;;7394891;19;20033;-69
2023/02/19 11:46:02;;;;;;;5.35;2.03;;;10.70;1.00;;;;;;7394847;19;20339;-68
2023/02/19 11:48:57;;;;;;;8.07;2.28;;;10.70;1.00;;;;;;7393698;19;20124;-68
2023/02/19 11:51:40;;;;;;;4.78;3.33;;;10.80;1.00;;;;;;7394015;19;20010;-68
2023/02/19 11:54:37;;;;;;;6.72;4.13;;;10.90;1.00;;;;;;7393759;19;20022;-68
2023/02/19 11:57:19;;;;;;;2.70;1.80;;;10.80;1.00;;;;;;7394344;19;20022;-69
2023/02/19 11:59:57;;;;;;;2.70;1.33;;;10.70;1.00;;;;;;7392685;19;20131;-69
2023/02/19 12:02:43;;;;;;;3.33;1.73;;;10.50;1.00;;;;;;7394937;19;20018;-69
2023/02/19 12:05:30;;;;;;;3.30;1.83;;;10.60;1.00;;;;;;7394984;19;20014;-69
2023/02/19 12:08:36;;;;;;;4.15;1.50;;;10.60;1.00;;;;;;7394504;19;20063;-69
2023/02/19 12:11:17;;;;;;;3.38;2.00;;;10.80;1.00;;;;;;7394815;19;20018;-69
2023/02/19 12:14:05;;;;;;;3.67;1.55;;;10.90;1.00;;;;;;7394797;19;20475;-69
2023/02/19 12:16:41;;;;;;;4.90;1.90;;;10.70;1.00;;;;;;7393585;19;20022;-69
2023/02/19 12:19:29;;;;;;;5.63;1.63;;;10.80;1.00;;;;;;7394214;19;20018;-69
2023/02/19 12:22:22;;;;;;;2.67;1.63;;;10.90;1.00;;;;;;7394829;19;20021;-69
2023/02/19 12:25:22;;;;;;;5.18;2.28;;;10.80;1.00;;;;;;7395194;19;20025;-66
2023/02/19 12:28:11;;;;;;;3.38;1.80;;;10.70;1.00;;;;;;7394682;19;20098;-69
2023/02/19 12:31:16;;;;;;;4.38;1.60;;;10.90;1.00;;;;;;7391608;19;20097;-68
2023/02/19 12:34:12;;;;;;;3.70;1.45;;;10.60;1.00;;;;;;7394053;19;20024;-68
2023/02/19 12:36:52;;;;;;;3.30;1.30;;;10.80;1.00;;;;;;7392595;19;20018;-69
2023/02/19 12:39:29;;;;;;;3.40;1.30;;;10.60;1.00;;;;;;7390271;19;20022;-68
2023/02/19 12:42:05;;;;;;;2.95;1.42;;;11.10;1.00;;;;;;7391829;19;20357;-68
2023/02/19 12:44:42;;;;;;;3.63;1.55;;;11.00;1.00;;;;;;7392573;19;20014;-69
2023/02/19 12:47:21;;;;;;;4.13;1.77;;;11.00;1.00;;;;;;7392189;19;20017;-70
2023/02/19 12:49:58;;;;;;;3.42;1.70;;;11.30;1.00;;;;;;7389944;19;20478;-70
2023/02/19 12:52:33;;;;;;;2.13;1.00;;;11.10;1.00;;;;;;7392897;19;20010;-68
2023/02/19 12:55:09;;;;;;;2.28;1.30;;;11.10;1.00;;;;;;7391644;19;20554;-69
2023/02/19 12:57:40;;;;;;;3.80;1.63;;;11.00;1.00;;;;;;7392833;19;20019;-69
2023/02/19 13:00:29;;;;;;;2.67;1.42;;;11.10;1.00;;;;;;7389862;19;20439;-69
2023/02/19 13:03:11;;;;;;;3.42;1.50;;;10.70;1.00;;;;;;7391715;19;20022;-68
2023/02/19 13:05:46;;;;;;;3.67;1.40;;;10.60;1.00;;;;;;7392156;19;20541;-69
2023/02/19 13:08:21;;;;;;;6.82;1.70;;;10.50;1.00;;;;;;7391357;19;20038;-69
2023/02/19 13:10:57;;;;;;;4.15;1.80;;;10.40;1.00;;;;;;7386735;19;20476;-69
2023/02/19 13:13:32;;;;;;;3.67;1.83;;;10.40;1.00;;;;;;7390842;19;20115;-69
2023/02/19 13:16:08;;;;;;;4.78;1.88;;;10.40;1.00;;;;;;7389877;19;20014;-69
2023/02/19 13:18:45;;;;;;;3.90;1.63;;;10.30;1.00;;;;;;7390689;19;20042;-69
2023/02/19 13:23:57;;;;;;;3.40;1.73;;;10.30;1.00;;;;;;7391350;19;20101;-69
2023/02/19 13:24:08;;;;;;;5.30;1.67;;;10.20;1.00;;;;;;7390941;19;20017;-69
2023/02/19 13:26:52;;;;;;;4.90;1.90;;;10.20;1.00;;;;;;7391883;19;20021;-67
2023/02/19 13:29:36;;;;;;;5.13;2.42;;;10.20;1.00;;;;;;7392218;19;20038;-69
2023/02/19 13:32:27;;;;;;;3.63;2.30;;;10.20;1.00;;;;;;7391386;19;20018;-69
2023/02/19 13:35:16;;;;;;;4.65;2.10;;;10.30;1.00;;;;;;7391106;19;20042;-69
2023/02/19 13:37:47;;;;;;;4.60;1.70;;;10.40;1.00;;;;;;7389434;19;20029;-69
2023/02/19 13:40:29;;;;;;;4.53;2.25;;;10.30;1.00;;;;;;7388765;19;20006;-69
2023/02/19 13:43:02;;;;;;;6.63;2.38;;;9.80;1.00;;;;;;7390998;19;20018;-69
2023/02/19 13:45:36;;;;;;;4.35;2.65;;;9.70;6.40;;;;;;7390200;19;20010;-69
2023/02/19 13:48:17;;;;;;;5.13;2.97;;;9.60;8.40;;;;;;7390199;19;20018;-68
2023/02/19 13:50:49;;;;;;;6.15;2.60;;;9.50;10.70;;;;;;7388426;19;20019;-68
2023/02/19 13:53:50;;;;;;;4.90;3.03;;;9.30;11.10;;;;;;7390084;19;20362;-68